sensor_id;sensor_type;location;lat;lon;timestamp;P1;durP1;ratioP1;P2;durP2;ratioP2
6406;SDS011;3236;51.022;6.818;2023-03-01T00:02:16;13.05;;;7.70;;
6406;SDS011;3236;51.022;6.818;2023-03-01T00:04:43;12.25;;;7.72;;
6406;SDS011;3236;51.022;6.818;2023-03-01T00:07:10;11.70;;;6.93;;
6406;SDS011;3236;51.022;6.818;2023-03-01T00:09:37;11.23;;;7.60;;
6406;SDS011;3236;51.022;6.818;2023-03-01T00:12:06;12.18;;;6.25;;
6406;SDS011;3236;51.022;6.818;2023-03-01T00:14:33;11.07;;;5.97;;
6406;SDS011;3236;51.022;6.818;2023-03-01T00:17:01;11.32;;;6.50;;
6406;SDS011;3236;51.022;6.818;2023-03-01T00:19:28;11.70;;;7.57;;
6406;SDS011;3236;51.022;6.818;2023-03-01T00:21:57;14.05;;;7.28;;
6406;SDS011;3236;51.022;6.818;2023-03-01T00:24:24;13.70;;;7.70;;
6406;SDS011;3236;51.022;6.818;2023-03-01T00:26:54;11.70;;;7.15;;
6406;SDS011;3236;51.022;6.818;2023-03-01T00:29:23;12.85;;;6.93;;
6406;SDS011;3236;51.022;6.818;2023-03-01T00:31:50;12.02;;;7.13;;
6406;SDS011;3236;51.022;6.818;2023-03-01T00:34:17;12.95;;;7.63;;
6406;SDS011;3236;51.022;6.818;2023-03-01T00:36:44;9.63;;;6.70;;
6406;SDS011;3236;51.022;6.818;2023-03-01T00:39:12;18.38;;;8.32;;
6406;SDS011;3236;51.022;6.818;2023-03-01T00:41:40;15.45;;;7.25;;
6406;SDS011;3236;51.022;6.818;2023-03-01T00:44:08;10.40;;;6.43;;
6406;SDS011;3236;51.022;6.818;2023-03-01T00:46:37;12.98;;;7.05;;
6406;SDS011;3236;51.022;6.818;2023-03-01T00:49:05;13.07;;;7.78;;
6406;SDS011;3236;51.022;6.818;2023-03-01T00:51:32;12.23;;;7.10;;
6406;SDS011;3236;51.022;6.818;2023-03-01T00:54:00;15.18;;;7.00;;
6406;SDS011;3236;51.022;6.818;2023-03-01T00:56:29;12.43;;;7.22;;
6406;SDS011;3236;51.022;6.818;2023-03-01T00:58:56;13.55;;;6.57;;
6406;SDS011;3236;51.022;6.818;2023-03-01T01:01:24;12.25;;;7.25;;
6406;SDS011;3236;51.022;6.818;2023-03-01T01:03:57;15.65;;;7.15;;
6406;SDS011;3236;51.022;6.818;2023-03-01T01:06:29;12.85;;;7.55;;
6406;SDS011;3236;51.022;6.818;2023-03-01T01:08:57;12.20;;;6.85;;
6406;SDS011;3236;51.022;6.818;2023-03-01T01:11:25;14.25;;;7.60;;
6406;SDS011;3236;51.022;6.818;2023-03-01T01:13:54;14.82;;;7.88;;
6406;SDS011;3236;51.022;6.818;2023-03-01T01:16:23;14.05;;;6.97;;
6406;SDS011;3236;51.022;6.818;2023-03-01T01:18:54;13.15;;;7.07;;
6406;SDS011;3236;51.022;6.818;2023-03-01T01:21:23;17.63;;;6.80;;
6406;SDS011;3236;51.022;6.818;2023-03-01T01:23:51;11.05;;;6.72;;
6406;SDS011;3236;51.022;6.818;2023-03-01T01:26:20;11.65;;;6.85;;
6406;SDS011;3236;51.022;6.818;2023-03-01T01:28:49;14.05;;;6.85;;
6406;SDS011;3236;51.022;6.818;2023-03-01T01:31:17;14.63;;;7.53;;
6406;SDS011;3236;51.022;6.818;2023-03-01T01:33:44;12.82;;;7.22;;
6406;SDS011;3236;51.022;6.818;2023-03-01T01:36:13;11.80;;;6.90;;
6406;SDS011;3236;51.022;6.818;2023-03-01T01:38:40;12.07;;;7.53;;
6406;SDS011;3236;51.022;6.818;2023-03-01T01:41:08;12.15;;;6.85;;
6406;SDS011;3236;51.022;6.818;2023-03-01T01:43:37;11.95;;;7.65;;
6406;SDS011;3236;51.022;6.818;2023-03-01T01:46:10;12.40;;;7.35;;
6406;SDS011;3236;51.022;6.818;2023-03-01T01:48:45;12.75;;;7.68;;
6406;SDS011;3236;51.022;6.818;2023-03-01T01:51:18;14.95;;;7.80;;
6406;SDS011;3236;51.022;6.818;2023-03-01T01:53:48;12.38;;;7.30;;
6406;SDS011;3236;51.022;6.818;2023-03-01T01:56:19;16.33;;;7.93;;
6406;SDS011;3236;51.022;6.818;2023-03-01T01:58:47;15.23;;;7.13;;
6406;SDS011;3236;51.022;6.818;2023-03-01T02:01:16;12.35;;;7.10;;
6406;SDS011;3236;51.022;6.818;2023-03-01T02:03:44;13.80;;;7.00;;
6406;SDS011;3236;51.022;6.818;2023-03-01T02:06:16;12.68;;;7.28;;
6406;SDS011;3236;51.022;6.818;2023-03-01T02:08:48;11.32;;;6.80;;
6406;SDS011;3236;51.022;6.818;2023-03-01T02:11:18;11.07;;;7.28;;
6406;SDS011;3236;51.022;6.818;2023-03-01T02:13:47;11.15;;;6.85;;
6406;SDS011;3236;51.022;6.818;2023-03-01T02:16:15;14.85;;;7.35;;
6406;SDS011;3236;51.022;6.818;2023-03-01T02:18:42;12.77;;;7.72;;
6406;SDS011;3236;51.022;6.818;2023-03-01T02:21:14;18.02;;;8.07;;
6406;SDS011;3236;51.022;6.818;2023-03-01T02:23:57;14.32;;;7.97;;
6406;SDS011;3236;51.022;6.818;2023-03-01T02:26:31;13.75;;;6.85;;
6406;SDS011;3236;51.022;6.818;2023-03-01T02:29:04;15.75;;;7.07;;
6406;SDS011;3236;51.022;6.818;2023-03-01T02:31:38;14.93;;;7.68;;
6406;SDS011;3236;51.022;6.818;2023-03-01T02:34:07;14.77;;;7.78;;
6406;SDS011;3236;51.022;6.818;2023-03-01T02:36:37;12.57;;;7.03;;
6406;SDS011;3236;51.022;6.818;2023-03-01T02:39:08;12.20;;;6.63;;
6406;SDS011;3236;51.022;6.818;2023-03-01T02:41:41;14.75;;;7.93;;
6406;SDS011;3236;51.022;6.818;2023-03-01T02:44:11;13.63;;;7.70;;
6406;SDS011;3236;51.022;6.818;2023-03-01T02:46:42;16.13;;;7.43;;
6406;SDS011;3236;51.022;6.818;2023-03-01T02:49:21;15.73;;;8.07;;
6406;SDS011;3236;51.022;6.818;2023-03-01T02:54:50;17.25;;;7.25;;
6406;SDS011;3236;51.022;6.818;2023-03-01T02:57:20;12.85;;;6.82;;
6406;SDS011;3236;51.022;6.818;2023-03-01T02:59:50;18.60;;;8.18;;
6406;SDS011;3236;51.022;6.818;2023-03-01T03:02:24;13.95;;;7.63;;
6406;SDS011;3236;51.022;6.818;2023-03-01T03:05:06;13.32;;;7.90;;
6406;SDS011;3236;51.022;6.818;2023-03-01T03:07:36;13.95;;;7.82;;
6406;SDS011;3236;51.022;6.818;2023-03-01T03:10:05;18.17;;;9.27;;
6406;SDS011;3236;51.022;6.818;2023-03-01T03:12:36;18.40;;;8.40;;
6406;SDS011;3236;51.022;6.818;2023-03-01T03:15:05;13.30;;;7.75;;
6406;SDS011;3236;51.022;6.818;2023-03-01T03:20:02;11.32;;;7.78;;
6406;SDS011;3236;51.022;6.818;2023-03-01T03:22:30;18.88;;;8.18;;
6406;SDS011;3236;51.022;6.818;2023-03-01T03:24:59;17.33;;;8.48;;
6406;SDS011;3236;51.022;6.818;2023-03-01T03:27:29;14.70;;;8.05;;
6406;SDS011;3236;51.022;6.818;2023-03-01T03:29:57;16.80;;;8.18;;
6406;SDS011;3236;51.022;6.818;2023-03-01T03:32:25;13.45;;;7.53;;
6406;SDS011;3236;51.022;6.818;2023-03-01T03:34:52;10.90;;;6.97;;
6406;SDS011;3236;51.022;6.818;2023-03-01T03:37:19;14.80;;;8.20;;
6406;SDS011;3236;51.022;6.818;2023-03-01T03:40:04;14.55;;;7.57;;
6406;SDS011;3236;51.022;6.818;2023-03-01T03:42:40;18.90;;;8.50;;
6406;SDS011;3236;51.022;6.818;2023-03-01T03:45:08;17.92;;;8.15;;
6406;SDS011;3236;51.022;6.818;2023-03-01T03:47:40;19.90;;;8.70;;
6406;SDS011;3236;51.022;6.818;2023-03-01T03:50:08;16.90;;;8.68;;
6406;SDS011;3236;51.022;6.818;2023-03-01T03:52:35;15.80;;;9.02;;
6406;SDS011;3236;51.022;6.818;2023-03-01T03:55:06;13.93;;;8.30;;
6406;SDS011;3236;51.022;6.818;2023-03-01T03:57:36;15.30;;;8.80;;
6406;SDS011;3236;51.022;6.818;2023-03-01T04:00:07;20.63;;;9.43;;
6406;SDS011;3236;51.022;6.818;2023-03-01T04:02:40;18.42;;;8.75;;
6406;SDS011;3236;51.022;6.818;2023-03-01T04:05:14;15.70;;;8.40;;
6406;SDS011;3236;51.022;6.818;2023-03-01T04:07:43;17.38;;;9.05;;
6406;SDS011;3236;51.022;6.818;2023-03-01T04:10:11;16.92;;;8.10;;
6406;SDS011;3236;51.022;6.818;2023-03-01T04:12:39;17.58;;;8.90;;
6406;SDS011;3236;51.022;6.818;2023-03-01T04:15:08;13.55;;;8.68;;
6406;SDS011;3236;51.022;6.818;2023-03-01T04:17:40;17.02;;;9.40;;
6406;SDS011;3236;51.022;6.818;2023-03-01T04:20:08;17.75;;;9.05;;
6406;SDS011;3236;51.022;6.818;2023-03-01T04:22:36;16.30;;;8.70;;
6406;SDS011;3236;51.022;6.818;2023-03-01T04:25:04;20.55;;;9.88;;
6406;SDS011;3236;51.022;6.818;2023-03-01T04:27:32;16.73;;;9.23;;
6406;SDS011;3236;51.022;6.818;2023-03-01T04:29:59;19.50;;;10.05;;
6406;SDS011;3236;51.022;6.818;2023-03-01T04:32:26;19.27;;;10.13;;
6406;SDS011;3236;51.022;6.818;2023-03-01T04:34:55;17.00;;;9.80;;
6406;SDS011;3236;51.022;6.818;2023-03-01T04:37:22;16.00;;;8.88;;
6406;SDS011;3236;51.022;6.818;2023-03-01T04:39:50;19.80;;;9.32;;
6406;SDS011;3236;51.022;6.818;2023-03-01T04:42:17;15.13;;;8.82;;
6406;SDS011;3236;51.022;6.818;2023-03-01T04:44:44;16.25;;;9.85;;
6406;SDS011;3236;51.022;6.818;2023-03-01T04:47:13;21.63;;;9.60;;
6406;SDS011;3236;51.022;6.818;2023-03-01T04:49:40;18.77;;;10.13;;
6406;SDS011;3236;51.022;6.818;2023-03-01T04:52:08;22.60;;;10.40;;
6406;SDS011;3236;51.022;6.818;2023-03-01T04:54:38;15.40;;;9.38;;
6406;SDS011;3236;51.022;6.818;2023-03-01T04:57:08;20.40;;;9.68;;
6406;SDS011;3236;51.022;6.818;2023-03-01T04:59:38;19.77;;;9.95;;
6406;SDS011;3236;51.022;6.818;2023-03-01T05:02:08;21.02;;;10.40;;
6406;SDS011;3236;51.022;6.818;2023-03-01T05:04:35;16.35;;;9.27;;
6406;SDS011;3236;51.022;6.818;2023-03-01T05:07:01;22.83;;;10.23;;
6406;SDS011;3236;51.022;6.818;2023-03-01T05:09:30;19.48;;;9.63;;
6406;SDS011;3236;51.022;6.818;2023-03-01T05:11:57;16.55;;;9.23;;
6406;SDS011;3236;51.022;6.818;2023-03-01T05:14:27;15.13;;;8.68;;
6406;SDS011;3236;51.022;6.818;2023-03-01T05:16:54;21.45;;;11.27;;
6406;SDS011;3236;51.022;6.818;2023-03-01T05:19:28;21.15;;;9.80;;
6406;SDS011;3236;51.022;6.818;2023-03-01T05:21:56;20.52;;;10.32;;
6406;SDS011;3236;51.022;6.818;2023-03-01T05:24:31;17.40;;;9.85;;
6406;SDS011;3236;51.022;6.818;2023-03-01T05:27:00;20.05;;;10.07;;
6406;SDS011;3236;51.022;6.818;2023-03-01T05:29:28;20.65;;;10.27;;
6406;SDS011;3236;51.022;6.818;2023-03-01T05:32:00;17.08;;;10.43;;
6406;SDS011;3236;51.022;6.818;2023-03-01T05:34:28;22.17;;;10.20;;
6406;SDS011;3236;51.022;6.818;2023-03-01T05:36:57;22.20;;;9.80;;
6406;SDS011;3236;51.022;6.818;2023-03-01T05:39:26;18.40;;;9.98;;
6406;SDS011;3236;51.022;6.818;2023-03-01T05:41:56;19.00;;;9.32;;
6406;SDS011;3236;51.022;6.818;2023-03-01T05:44:25;22.95;;;10.18;;
6406;SDS011;3236;51.022;6.818;2023-03-01T05:46:58;18.25;;;9.27;;
6406;SDS011;3236;51.022;6.818;2023-03-01T05:49:25;24.00;;;9.77;;
6406;SDS011;3236;51.022;6.818;2023-03-01T05:51:53;16.85;;;9.80;;
6406;SDS011;3236;51.022;6.818;2023-03-01T05:54:21;17.73;;;9.88;;
6406;SDS011;3236;51.022;6.818;2023-03-01T05:56:48;17.52;;;9.98;;
6406;SDS011;3236;51.022;6.818;2023-03-01T05:59:16;20.83;;;10.02;;
6406;SDS011;3236;51.022;6.818;2023-03-01T06:01:43;17.48;;;9.52;;
6406;SDS011;3236;51.022;6.818;2023-03-01T06:04:13;18.75;;;11.13;;
6406;SDS011;3236;51.022;6.818;2023-03-01T06:06:41;23.33;;;11.23;;
6406;SDS011;3236;51.022;6.818;2023-03-01T06:09:08;21.23;;;9.60;;
6406;SDS011;3236;51.022;6.818;2023-03-01T06:11:35;19.92;;;9.85;;
6406;SDS011;3236;51.022;6.818;2023-03-01T06:14:02;21.45;;;9.88;;
6406;SDS011;3236;51.022;6.818;2023-03-01T06:16:32;19.30;;;10.50;;
6406;SDS011;3236;51.022;6.818;2023-03-01T06:18:59;26.38;;;10.30;;
6406;SDS011;3236;51.022;6.818;2023-03-01T06:21:26;19.33;;;10.80;;
6406;SDS011;3236;51.022;6.818;2023-03-01T06:23:54;19.67;;;10.23;;
6406;SDS011;3236;51.022;6.818;2023-03-01T06:26:21;19.27;;;9.80;;
6406;SDS011;3236;51.022;6.818;2023-03-01T06:28:48;20.55;;;10.50;;
6406;SDS011;3236;51.022;6.818;2023-03-01T06:31:16;19.80;;;9.85;;
6406;SDS011;3236;51.022;6.818;2023-03-01T06:33:45;18.20;;;10.50;;
6406;SDS011;3236;51.022;6.818;2023-03-01T06:36:12;21.42;;;10.25;;
6406;SDS011;3236;51.022;6.818;2023-03-01T06:38:39;19.88;;;9.50;;
6406;SDS011;3236;51.022;6.818;2023-03-01T06:41:06;21.52;;;10.35;;
6406;SDS011;3236;51.022;6.818;2023-03-01T06:43:36;22.00;;;10.57;;
6406;SDS011;3236;51.022;6.818;2023-03-01T06:46:04;19.63;;;9.98;;
6406;SDS011;3236;51.022;6.818;2023-03-01T06:48:32;23.30;;;11.27;;
6406;SDS011;3236;51.022;6.818;2023-03-01T06:51:04;21.23;;;10.57;;
6406;SDS011;3236;51.022;6.818;2023-03-01T06:53:35;20.45;;;10.25;;
6406;SDS011;3236;51.022;6.818;2023-03-01T06:56:06;18.58;;;9.95;;
6406;SDS011;3236;51.022;6.818;2023-03-01T06:58:36;21.17;;;10.32;;
6406;SDS011;3236;51.022;6.818;2023-03-01T07:01:05;23.45;;;10.75;;
6406;SDS011;3236;51.022;6.818;2023-03-01T07:03:32;20.73;;;10.15;;
6406;SDS011;3236;51.022;6.818;2023-03-01T07:06:00;22.27;;;11.25;;
6406;SDS011;3236;51.022;6.818;2023-03-01T07:08:28;24.50;;;12.07;;
6406;SDS011;3236;51.022;6.818;2023-03-01T07:10:55;23.48;;;11.23;;
6406;SDS011;3236;51.022;6.818;2023-03-01T07:13:22;21.40;;;10.57;;
6406;SDS011;3236;51.022;6.818;2023-03-01T07:15:49;26.63;;;12.88;;
6406;SDS011;3236;51.022;6.818;2023-03-01T07:18:16;27.52;;;12.85;;
6406;SDS011;3236;51.022;6.818;2023-03-01T07:20:47;26.23;;;11.93;;
6406;SDS011;3236;51.022;6.818;2023-03-01T07:23:15;26.50;;;12.75;;
6406;SDS011;3236;51.022;6.818;2023-03-01T07:25:50;24.73;;;11.60;;
6406;SDS011;3236;51.022;6.818;2023-03-01T07:28:19;22.15;;;11.15;;
6406;SDS011;3236;51.022;6.818;2023-03-01T07:30:46;22.52;;;12.38;;
6406;SDS011;3236;51.022;6.818;2023-03-01T07:33:13;29.35;;;12.98;;
6406;SDS011;3236;51.022;6.818;2023-03-01T07:35:40;21.48;;;11.75;;
6406;SDS011;3236;51.022;6.818;2023-03-01T07:38:07;29.58;;;12.10;;
6406;SDS011;3236;51.022;6.818;2023-03-01T07:40:36;25.50;;;12.35;;
6406;SDS011;3236;51.022;6.818;2023-03-01T07:43:03;30.73;;;13.52;;
6406;SDS011;3236;51.022;6.818;2023-03-01T07:45:30;29.63;;;11.98;;
6406;SDS011;3236;51.022;6.818;2023-03-01T07:47:57;24.15;;;14.13;;
6406;SDS011;3236;51.022;6.818;2023-03-01T07:50:24;26.15;;;13.57;;
6406;SDS011;3236;51.022;6.818;2023-03-01T07:52:54;26.13;;;15.18;;
6406;SDS011;3236;51.022;6.818;2023-03-01T07:55:21;28.80;;;12.80;;
6406;SDS011;3236;51.022;6.818;2023-03-01T07:57:50;24.13;;;11.77;;
6406;SDS011;3236;51.022;6.818;2023-03-01T08:00:17;19.23;;;10.77;;
6406;SDS011;3236;51.022;6.818;2023-03-01T08:02:45;22.50;;;11.68;;
6406;SDS011;3236;51.022;6.818;2023-03-01T08:05:12;26.27;;;13.18;;
6406;SDS011;3236;51.022;6.818;2023-03-01T08:07:39;25.15;;;11.73;;
6406;SDS011;3236;51.022;6.818;2023-03-01T08:10:06;24.73;;;11.48;;
6406;SDS011;3236;51.022;6.818;2023-03-01T08:12:34;21.60;;;10.23;;
6406;SDS011;3236;51.022;6.818;2023-03-01T08:15:09;20.13;;;10.10;;
6406;SDS011;3236;51.022;6.818;2023-03-01T08:17:39;23.30;;;10.75;;
6406;SDS011;3236;51.022;6.818;2023-03-01T08:20:08;25.27;;;11.35;;
6406;SDS011;3236;51.022;6.818;2023-03-01T08:22:39;22.58;;;10.90;;
6406;SDS011;3236;51.022;6.818;2023-03-01T08:25:07;19.95;;;10.13;;
6406;SDS011;3236;51.022;6.818;2023-03-01T08:27:37;18.10;;;10.73;;
6406;SDS011;3236;51.022;6.818;2023-03-01T08:30:05;18.92;;;11.20;;
6406;SDS011;3236;51.022;6.818;2023-03-01T08:32:36;20.50;;;10.23;;
6406;SDS011;3236;51.022;6.818;2023-03-01T08:35:07;22.20;;;9.70;;
6406;SDS011;3236;51.022;6.818;2023-03-01T08:37:34;21.27;;;10.20;;
6406;SDS011;3236;51.022;6.818;2023-03-01T08:40:01;19.55;;;10.70;;
6406;SDS011;3236;51.022;6.818;2023-03-01T08:42:32;16.75;;;9.38;;
6406;SDS011;3236;51.022;6.818;2023-03-01T08:44:59;19.45;;;10.13;;
6406;SDS011;3236;51.022;6.818;2023-03-01T08:47:26;20.27;;;10.52;;
6406;SDS011;3236;51.022;6.818;2023-03-01T08:49:55;19.70;;;10.57;;
6406;SDS011;3236;51.022;6.818;2023-03-01T08:52:22;19.63;;;10.70;;
6406;SDS011;3236;51.022;6.818;2023-03-01T08:54:49;22.20;;;11.05;;
6406;SDS011;3236;51.022;6.818;2023-03-01T08:57:17;21.63;;;10.52;;
6406;SDS011;3236;51.022;6.818;2023-03-01T08:59:43;33.75;;;14.10;;
6406;SDS011;3236;51.022;6.818;2023-03-01T09:02:11;24.77;;;12.32;;
6406;SDS011;3236;51.022;6.818;2023-03-01T09:04:44;20.67;;;10.93;;
6406;SDS011;3236;51.022;6.818;2023-03-01T09:07:12;22.55;;;12.32;;
6406;SDS011;3236;51.022;6.818;2023-03-01T09:09:39;22.77;;;11.68;;
6406;SDS011;3236;51.022;6.818;2023-03-01T09:12:06;19.35;;;10.10;;
6406;SDS011;3236;51.022;6.818;2023-03-01T09:14:33;21.45;;;10.85;;
6406;SDS011;3236;51.022;6.818;2023-03-01T09:17:02;19.10;;;10.10;;
6406;SDS011;3236;51.022;6.818;2023-03-01T09:19:34;24.70;;;10.95;;
6406;SDS011;3236;51.022;6.818;2023-03-01T09:22:02;17.70;;;9.60;;
6406;SDS011;3236;51.022;6.818;2023-03-01T09:24:31;14.60;;;8.80;;
6406;SDS011;3236;51.022;6.818;2023-03-01T09:26:58;18.98;;;10.55;;
6406;SDS011;3236;51.022;6.818;2023-03-01T09:29:25;17.38;;;9.60;;
6406;SDS011;3236;51.022;6.818;2023-03-01T09:31:52;15.30;;;8.05;;
6406;SDS011;3236;51.022;6.818;2023-03-01T09:34:20;19.25;;;8.90;;
6406;SDS011;3236;51.022;6.818;2023-03-01T09:36:48;15.57;;;8.77;;
6406;SDS011;3236;51.022;6.818;2023-03-01T09:39:16;20.02;;;8.80;;
6406;SDS011;3236;51.022;6.818;2023-03-01T09:41:47;22.15;;;8.77;;
6406;SDS011;3236;51.022;6.818;2023-03-01T09:44:25;20.15;;;9.23;;
6406;SDS011;3236;51.022;6.818;2023-03-01T09:47:02;13.55;;;7.90;;
6406;SDS011;3236;51.022;6.818;2023-03-01T09:49:36;18.08;;;8.40;;
6406;SDS011;3236;51.022;6.818;2023-03-01T09:52:12;13.15;;;8.35;;
6406;SDS011;3236;51.022;6.818;2023-03-01T09:54:49;12.65;;;8.10;;
6406;SDS011;3236;51.022;6.818;2023-03-01T09:57:24;10.75;;;5.95;;
6406;SDS011;3236;51.022;6.818;2023-03-01T10:00:00;14.00;;;7.70;;
6406;SDS011;3236;51.022;6.818;2023-03-01T10:02:38;14.45;;;7.75;;
6406;SDS011;3236;51.022;6.818;2023-03-01T10:05:15;16.48;;;7.95;;
6406;SDS011;3236;51.022;6.818;2023-03-01T10:07:54;12.35;;;7.88;;
6406;SDS011;3236;51.022;6.818;2023-03-01T10:10:32;12.95;;;7.97;;
6406;SDS011;3236;51.022;6.818;2023-03-01T10:13:03;16.10;;;8.02;;
6406;SDS011;3236;51.022;6.818;2023-03-01T10:15:40;18.98;;;7.93;;
6406;SDS011;3236;51.022;6.818;2023-03-01T10:18:11;16.13;;;8.10;;
6406;SDS011;3236;51.022;6.818;2023-03-01T10:20:43;14.70;;;8.05;;
6406;SDS011;3236;51.022;6.818;2023-03-01T10:23:18;16.02;;;7.55;;
6406;SDS011;3236;51.022;6.818;2023-03-01T10:25:52;16.58;;;7.93;;
6406;SDS011;3236;51.022;6.818;2023-03-01T10:28:35;14.20;;;8.43;;
6406;SDS011;3236;51.022;6.818;2023-03-01T10:31:11;20.05;;;8.75;;
6406;SDS011;3236;51.022;6.818;2023-03-01T10:33:40;15.55;;;8.55;;
6406;SDS011;3236;51.022;6.818;2023-03-01T10:36:08;15.32;;;7.38;;
6406;SDS011;3236;51.022;6.818;2023-03-01T10:38:46;14.15;;;7.53;;
6406;SDS011;3236;51.022;6.818;2023-03-01T10:41:17;13.40;;;7.80;;
6406;SDS011;3236;51.022;6.818;2023-03-01T10:43:46;15.10;;;8.82;;
6406;SDS011;3236;51.022;6.818;2023-03-01T10:46:29;12.70;;;7.25;;
6406;SDS011;3236;51.022;6.818;2023-03-01T10:49:10;14.95;;;8.30;;
6406;SDS011;3236;51.022;6.818;2023-03-01T10:51:41;13.38;;;7.70;;
6406;SDS011;3236;51.022;6.818;2023-03-01T10:54:20;14.50;;;8.20;;
6406;SDS011;3236;51.022;6.818;2023-03-01T10:56:50;14.60;;;8.02;;
6406;SDS011;3236;51.022;6.818;2023-03-01T10:59:22;15.85;;;7.95;;
6406;SDS011;3236;51.022;6.818;2023-03-01T11:04:58;13.73;;;7.95;;
6406;SDS011;3236;51.022;6.818;2023-03-01T11:07:27;14.70;;;7.78;;
6406;SDS011;3236;51.022;6.818;2023-03-01T11:09:54;10.40;;;5.65;;
6406;SDS011;3236;51.022;6.818;2023-03-01T11:12:23;15.23;;;8.00;;
6406;SDS011;3236;51.022;6.818;2023-03-01T11:14:55;13.07;;;7.47;;
6406;SDS011;3236;51.022;6.818;2023-03-01T11:20:00;14.52;;;8.20;;
6406;SDS011;3236;51.022;6.818;2023-03-01T11:22:46;14.35;;;8.13;;
6406;SDS011;3236;51.022;6.818;2023-03-01T11:25:17;11.50;;;7.40;;
6406;SDS011;3236;51.022;6.818;2023-03-01T11:27:45;15.25;;;8.38;;
6406;SDS011;3236;51.022;6.818;2023-03-01T11:30:18;15.18;;;7.93;;
6406;SDS011;3236;51.022;6.818;2023-03-01T11:32:50;15.27;;;7.95;;
6406;SDS011;3236;51.022;6.818;2023-03-01T11:35:33;9.15;;;6.47;;
6406;SDS011;3236;51.022;6.818;2023-03-01T11:38:06;11.07;;;8.27;;
6406;SDS011;3236;51.022;6.818;2023-03-01T11:40:44;10.27;;;7.15;;
6406;SDS011;3236;51.022;6.818;2023-03-01T11:43:19;11.80;;;7.78;;
6406;SDS011;3236;51.022;6.818;2023-03-01T11:49:00;14.65;;;8.30;;
6406;SDS011;3236;51.022;6.818;2023-03-01T11:51:41;11.90;;;8.20;;
6406;SDS011;3236;51.022;6.818;2023-03-01T11:54:17;10.02;;;7.40;;
6406;SDS011;3236;51.022;6.818;2023-03-01T11:56:57;14.10;;;8.75;;
6406;SDS011;3236;51.022;6.818;2023-03-01T11:59:44;11.00;;;7.55;;
6406;SDS011;3236;51.022;6.818;2023-03-01T12:02:37;11.77;;;7.85;;
6406;SDS011;3236;51.022;6.818;2023-03-01T12:05:47;16.42;;;7.97;;
6406;SDS011;3236;51.022;6.818;2023-03-01T12:08:35;12.77;;;7.85;;
6406;SDS011;3236;51.022;6.818;2023-03-01T12:11:12;14.93;;;8.18;;
6406;SDS011;3236;51.022;6.818;2023-03-01T12:16:59;13.93;;;7.80;;
6406;SDS011;3236;51.022;6.818;2023-03-01T12:19:52;12.73;;;7.85;;
6406;SDS011;3236;51.022;6.818;2023-03-01T12:22:43;13.45;;;7.70;;
6406;SDS011;3236;51.022;6.818;2023-03-01T12:25:31;12.45;;;8.27;;
6406;SDS011;3236;51.022;6.818;2023-03-01T12:28:24;14.38;;;7.72;;
6406;SDS011;3236;51.022;6.818;2023-03-01T12:31:15;12.27;;;8.23;;
6406;SDS011;3236;51.022;6.818;2023-03-01T12:33:56;14.57;;;7.82;;
6406;SDS011;3236;51.022;6.818;2023-03-01T12:36:34;12.65;;;7.68;;
6406;SDS011;3236;51.022;6.818;2023-03-01T12:39:42;18.05;;;8.35;;
6406;SDS011;3236;51.022;6.818;2023-03-01T12:42:23;14.27;;;8.30;;
6406;SDS011;3236;51.022;6.818;2023-03-01T12:47:54;15.50;;;8.63;;
6406;SDS011;3236;51.022;6.818;2023-03-01T12:50:36;15.18;;;8.65;;
6406;SDS011;3236;51.022;6.818;2023-03-01T12:53:07;12.60;;;8.45;;
6406;SDS011;3236;51.022;6.818;2023-03-01T12:55:49;13.50;;;8.00;;
6406;SDS011;3236;51.022;6.818;2023-03-01T12:58:20;14.52;;;7.85;;
6406;SDS011;3236;51.022;6.818;2023-03-01T13:00:58;14.13;;;8.73;;
6406;SDS011;3236;51.022;6.818;2023-03-01T13:03:35;14.95;;;8.52;;
6406;SDS011;3236;51.022;6.818;2023-03-01T13:06:19;12.60;;;8.60;;
6406;SDS011;3236;51.022;6.818;2023-03-01T13:08:54;14.52;;;9.65;;
6406;SDS011;3236;51.022;6.818;2023-03-01T13:11:34;15.18;;;9.32;;
6406;SDS011;3236;51.022;6.818;2023-03-01T13:16:46;17.85;;;9.57;;
6406;SDS011;3236;51.022;6.818;2023-03-01T13:19:15;16.30;;;10.05;;
6406;SDS011;3236;51.022;6.818;2023-03-01T13:21:43;12.40;;;8.27;;
6406;SDS011;3236;51.022;6.818;2023-03-01T13:24:23;14.65;;;8.52;;
6406;SDS011;3236;51.022;6.818;2023-03-01T13:27:18;20.50;;;9.32;;
6406;SDS011;3236;51.022;6.818;2023-03-01T13:29:55;13.55;;;9.43;;
6406;SDS011;3236;51.022;6.818;2023-03-01T13:32:26;15.60;;;9.38;;
6406;SDS011;3236;51.022;6.818;2023-03-01T13:34:57;14.75;;;8.88;;
6406;SDS011;3236;51.022;6.818;2023-03-01T13:37:29;15.30;;;9.40;;
6406;SDS011;3236;51.022;6.818;2023-03-01T13:39:59;13.95;;;9.05;;
6406;SDS011;3236;51.022;6.818;2023-03-01T13:42:46;13.60;;;8.07;;
6406;SDS011;3236;51.022;6.818;2023-03-01T13:48:02;17.88;;;8.02;;
6406;SDS011;3236;51.022;6.818;2023-03-01T13:50:36;11.43;;;7.78;;
6406;SDS011;3236;51.022;6.818;2023-03-01T13:53:10;11.75;;;7.60;;
6406;SDS011;3236;51.022;6.818;2023-03-01T13:55:44;13.52;;;7.88;;
6406;SDS011;3236;51.022;6.818;2023-03-01T13:58:21;12.93;;;7.05;;
6406;SDS011;3236;51.022;6.818;2023-03-01T14:01:00;11.73;;;7.68;;
6406;SDS011;3236;51.022;6.818;2023-03-01T14:03:29;9.85;;;7.00;;
6406;SDS011;3236;51.022;6.818;2023-03-01T14:05:59;11.05;;;7.00;;
6406;SDS011;3236;51.022;6.818;2023-03-01T14:08:29;10.13;;;7.13;;
6406;SDS011;3236;51.022;6.818;2023-03-01T14:11:04;13.43;;;7.32;;
6406;SDS011;3236;51.022;6.818;2023-03-01T14:14:02;13.93;;;7.82;;
6406;SDS011;3236;51.022;6.818;2023-03-01T14:16:49;9.65;;;7.05;;
6406;SDS011;3236;51.022;6.818;2023-03-01T14:19:25;11.90;;;7.50;;
6406;SDS011;3236;51.022;6.818;2023-03-01T14:22:03;13.35;;;7.57;;
6406;SDS011;3236;51.022;6.818;2023-03-01T14:24:40;19.63;;;9.20;;
6406;SDS011;3236;51.022;6.818;2023-03-01T14:27:17;16.40;;;8.80;;
6406;SDS011;3236;51.022;6.818;2023-03-01T14:29:53;10.70;;;6.28;;
6406;SDS011;3236;51.022;6.818;2023-03-01T14:32:25;10.38;;;6.15;;
6406;SDS011;3236;51.022;6.818;2023-03-01T14:34:53;16.00;;;7.65;;
6406;SDS011;3236;51.022;6.818;2023-03-01T14:37:22;9.65;;;6.45;;
6406;SDS011;3236;51.022;6.818;2023-03-01T14:39:51;15.95;;;8.32;;
6406;SDS011;3236;51.022;6.818;2023-03-01T14:42:19;13.27;;;7.28;;
6406;SDS011;3236;51.022;6.818;2023-03-01T14:44:49;13.60;;;7.57;;
6406;SDS011;3236;51.022;6.818;2023-03-01T14:47:25;13.52;;;7.13;;
6406;SDS011;3236;51.022;6.818;2023-03-01T14:49:57;14.73;;;7.88;;
6406;SDS011;3236;51.022;6.818;2023-03-01T14:52:28;13.60;;;6.95;;
6406;SDS011;3236;51.022;6.818;2023-03-01T14:55:01;11.63;;;7.15;;
6406;SDS011;3236;51.022;6.818;2023-03-01T14:57:30;14.65;;;8.50;;
6406;SDS011;3236;51.022;6.818;2023-03-01T14:59:59;13.07;;;6.82;;
6406;SDS011;3236;51.022;6.818;2023-03-01T15:02:30;13.25;;;7.25;;
6406;SDS011;3236;51.022;6.818;2023-03-01T15:05:00;11.25;;;7.45;;
6406;SDS011;3236;51.022;6.818;2023-03-01T15:07:33;12.95;;;7.28;;
6406;SDS011;3236;51.022;6.818;2023-03-01T15:10:02;14.15;;;6.85;;
6406;SDS011;3236;51.022;6.818;2023-03-01T15:12:37;10.75;;;6.45;;
6406;SDS011;3236;51.022;6.818;2023-03-01T15:18:01;13.48;;;7.05;;
6406;SDS011;3236;51.022;6.818;2023-03-01T15:20:30;12.00;;;7.30;;
6406;SDS011;3236;51.022;6.818;2023-03-01T15:23:04;11.23;;;6.82;;
6406;SDS011;3236;51.022;6.818;2023-03-01T15:25:32;15.00;;;7.60;;
6406;SDS011;3236;51.022;6.818;2023-03-01T15:28:04;11.00;;;6.68;;
6406;SDS011;3236;51.022;6.818;2023-03-01T15:30:33;11.07;;;6.95;;
6406;SDS011;3236;51.022;6.818;2023-03-01T15:35:59;11.77;;;6.95;;
6406;SDS011;3236;51.022;6.818;2023-03-01T15:38:36;13.20;;;7.10;;
6406;SDS011;3236;51.022;6.818;2023-03-01T15:41:23;12.05;;;6.22;;
6406;SDS011;3236;51.022;6.818;2023-03-01T15:43:52;11.93;;;6.38;;
6406;SDS011;3236;51.022;6.818;2023-03-01T15:46:26;10.73;;;6.85;;
6406;SDS011;3236;51.022;6.818;2023-03-01T15:48:57;13.40;;;6.85;;
6406;SDS011;3236;51.022;6.818;2023-03-01T15:51:27;12.98;;;6.28;;
6406;SDS011;3236;51.022;6.818;2023-03-01T15:54:01;12.00;;;6.10;;
6406;SDS011;3236;51.022;6.818;2023-03-01T15:56:32;8.75;;;6.07;;